createdAt,value
2022-08-30T00:00:06.849Z,8.93
2022-08-30T00:02:36.313Z,9.27
2022-08-30T00:05:05.261Z,8.20
2022-08-30T00:07:35.143Z,10.60
2022-08-30T00:10:06.200Z,8.02
2022-08-30T00:12:35.182Z,6.90
2022-08-30T00:15:05.012Z,8.23
2022-08-30T00:17:33.621Z,10.48
2022-08-30T00:20:02.455Z,7.68
2022-08-30T00:22:32.997Z,8.35
2022-08-30T00:25:02.219Z,7.57
2022-08-30T00:27:32.223Z,10.55
2022-08-30T00:30:01.618Z,9.45
2022-08-30T00:32:30.531Z,7.90
2022-08-30T00:34:58.971Z,9.68
2022-08-30T00:37:28.058Z,7.50
2022-08-30T00:39:56.468Z,8.10
2022-08-30T00:42:26.225Z,9.43
2022-08-30T00:44:56.706Z,8.23
2022-08-30T00:47:26.548Z,7.97
2022-08-30T00:49:58.848Z,7.40
2022-08-30T00:52:27.288Z,7.35
2022-08-30T00:54:56.616Z,10.45
2022-08-30T00:57:25.129Z,9.82
2022-08-30T00:59:54.119Z,7.63
2022-08-30T01:02:25.409Z,7.82
2022-08-30T01:04:55.844Z,8.88
2022-08-30T01:07:25.243Z,9.25
2022-08-30T01:09:53.874Z,8.05
2022-08-30T01:12:23.991Z,8.48
2022-08-30T01:14:52.758Z,7.88
2022-08-30T01:17:21.600Z,8.40
2022-08-30T01:19:58.602Z,8.32
2022-08-30T01:22:34.028Z,8.60
2022-08-30T01:25:08.237Z,7.80
2022-08-30T01:27:40.995Z,7.72
2022-08-30T01:30:11.689Z,7.82
2022-08-30T01:32:42.459Z,9.07
2022-08-30T01:35:12.793Z,9.70
2022-08-30T01:37:41.605Z,11.10
2022-08-30T01:40:14.050Z,11.05
2022-08-30T01:42:43.139Z,8.85
2022-08-30T01:45:13.789Z,9.48
2022-08-30T01:47:42.781Z,9.40
2022-08-30T01:50:12.175Z,9.02
2022-08-30T01:52:41.279Z,10.32
2022-08-30T01:55:11.877Z,8.57
2022-08-30T01:57:41.758Z,11.38
2022-08-30T02:00:12.474Z,10.50
2022-08-30T02:02:41.366Z,8.60
2022-08-30T02:05:10.587Z,8.73
2022-08-30T02:07:39.113Z,9.75
2022-08-30T02:10:09.185Z,8.63
2022-08-30T02:12:39.453Z,10.07
2022-08-30T02:15:09.815Z,8.95
2022-08-30T02:17:39.420Z,11.38
2022-08-30T02:20:08.963Z,8.77
2022-08-30T02:22:37.881Z,10.65
2022-08-30T02:25:12.171Z,11.27
2022-08-30T02:27:51.345Z,10.32
2022-08-30T02:30:19.722Z,10.23
2022-08-30T02:32:48.467Z,9.15
2022-08-30T02:35:17.278Z,8.77
2022-08-30T02:37:46.719Z,9.60
2022-08-30T02:40:15.965Z,9.20
2022-08-30T02:42:44.818Z,10.82
2022-08-30T02:45:15.271Z,10.10
2022-08-30T02:47:47.311Z,10.30
2022-08-30T02:50:16.269Z,9.73
2022-08-30T02:52:48.270Z,9.18
2022-08-30T02:55:18.286Z,10.23
2022-08-30T02:57:47.704Z,11.18
2022-08-30T03:00:21.885Z,11.00
2022-08-30T03:02:50.318Z,8.88
2022-08-30T03:05:20.194Z,11.63
2022-08-30T03:07:48.885Z,9.05
2022-08-30T03:10:18.706Z,11.90
2022-08-30T03:12:48.308Z,8.73
2022-08-30T03:15:18.813Z,10.55
2022-08-30T03:17:47.465Z,8.32
2022-08-30T03:20:16.398Z,10.70
2022-08-30T03:22:44.762Z,9.30
2022-08-30T03:25:13.946Z,10.98
2022-08-30T03:27:42.448Z,9.93
2022-08-30T03:30:12.643Z,8.88
2022-08-30T03:32:43.241Z,9.43
2022-08-30T03:35:14.321Z,10.73
2022-08-30T03:37:42.766Z,9.68
2022-08-30T03:40:13.889Z,10.40
2022-08-30T03:42:43.330Z,9.75
2022-08-30T03:45:14.921Z,8.88
2022-08-30T03:47:45.578Z,10.40
2022-08-30T03:50:16.903Z,9.85
2022-08-30T03:52:46.263Z,11.40
2022-08-30T03:55:14.804Z,10.52
2022-08-30T03:57:43.969Z,12.73
2022-08-30T04:00:13.942Z,9.73
2022-08-30T04:02:43.981Z,8.95
2022-08-30T04:05:13.986Z,10.88
2022-08-30T04:07:44.082Z,9.85
2022-08-30T04:10:13.438Z,9.18
2022-08-30T04:12:47.412Z,8.55
2022-08-30T04:15:20.541Z,8.90
2022-08-30T04:17:51.581Z,8.70
2022-08-30T04:20:20.296Z,9.68
2022-08-30T04:22:49.627Z,8.32
2022-08-30T04:25:18.272Z,8.43
2022-08-30T04:27:47.681Z,9.07
2022-08-30T04:30:17.790Z,10.85
2022-08-30T04:32:47.295Z,8.75
2022-08-30T04:35:17.082Z,11.30
2022-08-30T04:37:47.138Z,8.55
2022-08-30T04:40:16.062Z,9.98
2022-08-30T04:42:45.650Z,9.07
2022-08-30T04:45:17.102Z,10.00
2022-08-30T04:47:46.786Z,11.45
2022-08-30T04:50:20.871Z,8.80
2022-08-30T04:52:49.753Z,9.30
2022-08-30T04:55:20.425Z,10.15
2022-08-30T04:57:49.281Z,9.45
2022-08-30T05:00:20.434Z,8.77
2022-08-30T05:02:48.964Z,9.60
2022-08-30T05:05:35.153Z,10.88
2022-08-30T05:08:05.259Z,12.00
2022-08-30T05:10:34.312Z,10.70
2022-08-30T05:13:03.619Z,11.60
2022-08-30T05:15:32.642Z,11.00
2022-08-30T05:18:01.094Z,11.00
2022-08-30T05:20:30.503Z,9.85
2022-08-30T05:22:59.012Z,9.60
2022-08-30T05:25:32.694Z,11.13
2022-08-30T05:28:01.286Z,10.23
2022-08-30T05:30:30.135Z,10.65
2022-08-30T05:32:58.453Z,9.52
2022-08-30T05:35:27.723Z,11.18
2022-08-30T05:37:56.812Z,10.35
2022-08-30T05:40:25.666Z,11.65
2022-08-30T05:42:59.461Z,10.60
2022-08-30T05:45:28.257Z,11.13
2022-08-30T05:47:56.677Z,10.48
2022-08-30T05:50:25.015Z,10.50
2022-08-30T05:52:53.779Z,10.55
2022-08-30T05:55:23.095Z,10.60
2022-08-30T05:57:51.480Z,14.20
2022-08-30T06:00:21.739Z,12.68
2022-08-30T06:02:55.496Z,12.82
2022-08-30T06:05:24.131Z,11.55
2022-08-30T06:07:53.191Z,13.00
2022-08-30T06:10:21.529Z,12.05
2022-08-30T06:12:50.334Z,12.82
2022-08-30T06:15:19.247Z,12.77
2022-08-30T06:17:49.982Z,9.85
2022-08-30T06:20:20.223Z,10.63
2022-08-30T06:22:48.944Z,13.38
2022-08-30T06:25:18.563Z,18.95
2022-08-30T06:27:47.504Z,13.40
2022-08-30T06:30:16.252Z,13.98
2022-08-30T06:32:48.438Z,17.92
2022-08-30T06:35:18.903Z,14.63
2022-08-30T06:37:47.249Z,13.73
2022-08-30T06:40:17.668Z,14.85
2022-08-30T06:42:46.148Z,14.10
2022-08-30T06:45:15.926Z,14.80
2022-08-30T06:47:46.024Z,16.83
2022-08-30T06:50:15.953Z,15.13
2022-08-30T06:52:47.344Z,21.40
2022-08-30T06:55:17.456Z,18.30
2022-08-30T06:57:47.362Z,25.50
2022-08-30T07:00:18.289Z,39.75
2022-08-30T07:02:46.909Z,29.83
2022-08-30T07:05:18.808Z,25.60
2022-08-30T07:07:50.166Z,27.48
2022-08-30T07:10:18.937Z,26.60
2022-08-30T07:12:47.314Z,24.83
2022-08-30T07:15:15.726Z,27.40
2022-08-30T07:18:01.803Z,26.25
2022-08-30T07:20:40.588Z,27.67
2022-08-30T07:23:12.800Z,26.35
2022-08-30T07:25:42.281Z,26.98
2022-08-30T07:28:11.145Z,29.27
2022-08-30T07:30:41.887Z,29.67
2022-08-30T07:33:10.686Z,34.30
2022-08-30T07:35:40.623Z,28.50
2022-08-30T07:38:13.318Z,27.00
2022-08-30T07:40:43.144Z,27.50
2022-08-30T07:43:11.650Z,25.05
2022-08-30T07:45:40.920Z,25.98
2022-08-30T07:48:11.561Z,26.92
2022-08-30T07:50:44.168Z,22.83
2022-08-30T07:53:13.360Z,22.40
2022-08-30T07:55:43.605Z,22.40
2022-08-30T07:58:11.998Z,22.00
2022-08-30T08:00:40.765Z,23.45
2022-08-30T08:03:11.584Z,20.02
2022-08-30T08:05:41.302Z,20.20
2022-08-30T08:08:11.386Z,19.02
2022-08-30T08:10:41.286Z,19.85
2022-08-30T08:13:12.022Z,21.42
2022-08-30T08:15:40.617Z,17.35
2022-08-30T08:18:09.488Z,17.50
2022-08-30T08:20:38.561Z,18.60
2022-08-30T08:23:07.446Z,19.38
2022-08-30T08:25:41.155Z,16.25
2022-08-30T08:28:11.703Z,20.90
2022-08-30T08:30:41.559Z,17.27
2022-08-30T08:33:13.574Z,15.93
2022-08-30T08:35:42.506Z,17.58
2022-08-30T08:38:11.031Z,19.83
2022-08-30T08:40:47.718Z,15.93
2022-08-30T08:43:20.408Z,14.32
2022-08-30T08:45:57.250Z,13.43
2022-08-30T08:48:58.167Z,16.33
2022-08-30T08:51:45.156Z,18.52
2022-08-30T08:54:17.686Z,13.60
2022-08-30T08:56:46.290Z,15.93
2022-08-30T08:59:17.344Z,16.20
2022-08-30T09:01:48.585Z,13.80
2022-08-30T09:04:21.192Z,16.13
2022-08-30T09:06:54.634Z,14.35
2022-08-30T09:09:27.367Z,13.98
2022-08-30T09:11:57.135Z,13.55
2022-08-30T09:14:30.590Z,13.90
2022-08-30T09:20:00.377Z,12.93
2022-08-30T09:22:35.761Z,13.68
2022-08-30T09:25:07.554Z,14.60
2022-08-30T09:27:38.593Z,16.13
2022-08-30T09:30:15.032Z,14.25
2022-08-30T09:32:50.717Z,13.95
2022-08-30T09:35:21.789Z,11.40
2022-08-30T09:37:56.853Z,11.10
2022-08-30T09:40:29.487Z,10.23
2022-08-30T09:43:08.429Z,13.20
2022-08-30T09:45:41.797Z,10.95
2022-08-30T09:48:32.983Z,10.75
2022-08-30T09:51:24.383Z,10.65
2022-08-30T09:54:17.361Z,12.98
2022-08-30T09:56:57.994Z,10.48
2022-08-30T09:59:42.133Z,11.38
2022-08-30T10:02:31.267Z,10.13
2022-08-30T10:05:07.647Z,9.27
2022-08-30T10:07:47.958Z,9.50
2022-08-30T10:10:25.867Z,7.18
2022-08-30T10:13:05.809Z,6.93
2022-08-30T10:15:40.174Z,7.25
2022-08-30T10:18:17.736Z,8.35
2022-08-30T10:20:55.035Z,7.82
2022-08-30T10:23:29.631Z,8.77
2022-08-30T10:26:07.803Z,7.47
2022-08-30T10:28:41.896Z,7.15
2022-08-30T10:31:17.810Z,7.22
2022-08-30T10:33:53.104Z,7.70
2022-08-30T10:36:32.371Z,10.88
2022-08-30T10:39:03.472Z,6.40
2022-08-30T10:41:38.911Z,10.45
2022-08-30T10:44:12.978Z,7.85
2022-08-30T10:46:57.633Z,8.07
2022-08-30T10:49:30.190Z,10.15
2022-08-30T10:52:06.763Z,11.18
2022-08-30T10:54:42.881Z,6.70
2022-08-30T10:57:11.870Z,6.15
2022-08-30T10:59:48.269Z,7.43
2022-08-30T11:02:39.507Z,7.60
2022-08-30T11:05:40.703Z,7.53
2022-08-30T11:08:22.221Z,7.25
2022-08-30T11:10:59.938Z,12.70
2022-08-30T11:13:32.262Z,10.52
2022-08-30T11:16:05.193Z,11.23
2022-08-30T11:18:42.662Z,9.25
2022-08-30T11:21:23.651Z,5.05
2022-08-30T11:24:11.734Z,16.67
2022-08-30T11:27:07.629Z,5.60
2022-08-30T11:29:43.260Z,7.10
2022-08-30T11:32:46.685Z,5.32
2022-08-30T11:35:37.184Z,6.20
2022-08-30T11:38:18.981Z,5.78
2022-08-30T11:40:51.327Z,7.38
2022-08-30T11:43:53.274Z,7.35
2022-08-30T11:46:37.431Z,7.63
2022-08-30T11:49:39.000Z,6.80
2022-08-30T11:52:28.599Z,5.80
2022-08-30T11:55:26.098Z,5.93
2022-08-30T11:58:01.901Z,4.50
2022-08-30T12:00:35.370Z,6.15
2022-08-30T12:03:06.675Z,5.00
2022-08-30T12:05:55.023Z,10.30
2022-08-30T12:09:02.569Z,6.50
2022-08-30T12:12:04.723Z,4.70
2022-08-30T12:14:55.065Z,7.82
2022-08-30T12:17:49.104Z,5.10
2022-08-30T12:20:27.757Z,5.13
2022-08-30T12:22:58.042Z,5.10
2022-08-30T12:25:33.638Z,4.40
2022-08-30T12:28:14.119Z,4.35
2022-08-30T12:30:46.790Z,5.35
2022-08-30T12:33:29.291Z,5.28
2022-08-30T12:35:59.361Z,5.82
2022-08-30T12:38:29.810Z,4.32
2022-08-30T12:41:01.491Z,4.63
2022-08-30T12:43:40.385Z,4.20
2022-08-30T12:46:15.998Z,4.15
2022-08-30T12:48:46.625Z,4.63
2022-08-30T12:51:29.287Z,4.20
2022-08-30T12:54:07.234Z,5.80
2022-08-30T12:56:57.807Z,5.82
2022-08-30T12:59:58.612Z,6.85
2022-08-30T13:02:42.605Z,4.43
2022-08-30T13:05:45.800Z,5.70
2022-08-30T13:08:20.213Z,4.57
2022-08-30T13:10:52.519Z,8.55
2022-08-30T13:13:40.289Z,5.72
2022-08-30T13:16:13.975Z,4.40
2022-08-30T13:18:42.333Z,6.97
2022-08-30T13:21:25.054Z,8.98
2022-08-30T13:23:57.742Z,5.05
2022-08-30T13:26:26.651Z,5.63
2022-08-30T13:28:58.224Z,8.60
2022-08-30T13:31:31.123Z,4.45
2022-08-30T13:34:02.746Z,4.63
2022-08-30T13:36:33.541Z,4.70
2022-08-30T13:39:04.331Z,4.10
2022-08-30T13:41:34.221Z,6.10
2022-08-30T13:44:13.835Z,4.57
2022-08-30T13:46:53.857Z,6.45
2022-08-30T13:52:21.538Z,4.40
2022-08-30T13:54:51.318Z,4.80
2022-08-30T14:00:17.528Z,3.97
2022-08-30T14:02:54.897Z,5.20
2022-08-30T14:11:06.926Z,3.90
2022-08-30T14:13:36.903Z,4.60
2022-08-30T14:19:00.535Z,4.10
2022-08-30T14:21:29.166Z,5.10
2022-08-30T14:23:59.888Z,4.65
2022-08-30T14:26:33.203Z,4.47
2022-08-30T14:29:04.548Z,4.60
2022-08-30T14:31:33.657Z,7.72
2022-08-30T14:34:05.207Z,6.38
2022-08-30T14:36:36.571Z,6.57
2022-08-30T14:39:09.738Z,4.28
2022-08-30T14:41:44.301Z,4.55
2022-08-30T14:44:13.438Z,5.88
2022-08-30T14:46:42.962Z,5.90
2022-08-30T14:49:14.446Z,4.80
2022-08-30T14:51:43.700Z,4.47
2022-08-30T14:54:12.030Z,4.43
2022-08-30T14:56:41.811Z,5.80
2022-08-30T14:59:12.136Z,4.95
2022-08-30T15:01:42.989Z,8.60
2022-08-30T15:04:14.653Z,5.72
2022-08-30T15:06:45.901Z,4.82
2022-08-30T15:09:18.491Z,6.47
2022-08-30T15:11:53.051Z,5.70
2022-08-30T15:14:23.278Z,5.13
2022-08-30T15:16:55.736Z,4.45
2022-08-30T15:19:26.258Z,4.35
2022-08-30T15:21:55.419Z,7.97
2022-08-30T15:24:29.604Z,5.00
2022-08-30T15:27:00.642Z,4.57
2022-08-30T15:29:31.919Z,5.53
2022-08-30T15:32:02.089Z,6.03
2022-08-30T15:34:32.838Z,4.35
2022-08-30T15:37:01.222Z,5.68
2022-08-30T15:39:30.669Z,5.20
2022-08-30T15:42:01.214Z,4.68
2022-08-30T15:44:31.419Z,8.27
2022-08-30T15:47:00.765Z,4.90
2022-08-30T15:49:30.430Z,6.13
2022-08-30T15:52:02.643Z,4.70
2022-08-30T15:54:32.236Z,6.63
2022-08-30T15:57:01.305Z,5.97
2022-08-30T15:59:32.432Z,4.28
2022-08-30T16:02:01.031Z,5.57
2022-08-30T16:04:30.140Z,4.63
2022-08-30T16:06:59.149Z,5.53
2022-08-30T16:09:29.863Z,4.38
2022-08-30T16:12:02.085Z,4.82
2022-08-30T16:14:31.702Z,4.57
2022-08-30T16:17:00.438Z,4.50
2022-08-30T16:19:29.402Z,5.22
2022-08-30T16:21:59.039Z,4.47
2022-08-30T16:24:28.823Z,7.30
2022-08-30T16:26:58.207Z,6.50
2022-08-30T16:29:26.700Z,4.78
2022-08-30T16:31:55.960Z,5.43
2022-08-30T16:34:24.777Z,5.03
2022-08-30T16:36:54.306Z,5.28
2022-08-30T16:39:23.277Z,6.57
2022-08-30T16:41:53.134Z,4.78
2022-08-30T16:44:21.898Z,7.10
2022-08-30T16:46:52.791Z,4.88
2022-08-30T16:49:25.589Z,6.07
2022-08-30T16:51:54.727Z,4.85
2022-08-30T16:54:23.772Z,7.55
2022-08-30T16:56:55.871Z,7.40
2022-08-30T16:59:24.933Z,5.40
2022-08-30T17:01:53.922Z,6.07
2022-08-30T17:04:23.668Z,6.20
2022-08-30T17:06:53.678Z,5.38
2022-08-30T17:09:22.932Z,6.47
2022-08-30T17:11:52.779Z,5.30
2022-08-30T17:14:28.077Z,5.82
2022-08-30T17:16:58.635Z,5.85
2022-08-30T17:19:30.423Z,6.97
2022-08-30T17:21:59.702Z,5.72
2022-08-30T17:24:28.359Z,7.43
2022-08-30T17:29:48.031Z,5.13
2022-08-30T17:32:17.217Z,6.40
2022-08-30T17:34:46.119Z,7.97
2022-08-30T17:37:15.736Z,6.10
2022-08-30T17:39:44.730Z,5.47
2022-08-30T17:42:14.219Z,5.47
2022-08-30T17:44:43.618Z,5.20
2022-08-30T17:47:13.420Z,6.43
2022-08-30T17:49:43.092Z,7.60
2022-08-30T17:52:12.669Z,7.15
2022-08-30T17:54:42.371Z,6.10
2022-08-30T17:57:11.952Z,7.80
2022-08-30T17:59:41.945Z,7.50
2022-08-30T18:02:11.378Z,6.35
2022-08-30T18:04:42.330Z,5.40
2022-08-30T18:07:12.435Z,5.50
2022-08-30T18:09:42.186Z,7.05
2022-08-30T18:12:13.124Z,5.15
2022-08-30T18:14:42.645Z,6.40
2022-08-30T18:17:11.488Z,5.47
2022-08-30T18:19:46.403Z,6.20
2022-08-30T18:22:16.254Z,9.00
2022-08-30T18:24:44.845Z,7.88
2022-08-30T18:27:15.371Z,8.00
2022-08-30T18:29:44.259Z,8.75
2022-08-30T18:32:13.177Z,6.30
2022-08-30T18:34:43.352Z,8.18
2022-08-30T18:37:13.297Z,7.03
2022-08-30T18:39:43.624Z,11.48
2022-08-30T18:42:12.423Z,8.32
2022-08-30T18:44:43.495Z,6.10
2022-08-30T18:47:13.142Z,9.90
2022-08-30T18:49:42.935Z,8.48
2022-08-30T18:52:12.483Z,8.25
2022-08-30T18:54:43.126Z,8.02
2022-08-30T18:57:14.375Z,8.00
2022-08-30T18:59:43.142Z,8.18
2022-08-30T19:02:14.122Z,7.47
2022-08-30T19:04:45.493Z,10.90
2022-08-30T19:07:16.314Z,7.40
2022-08-30T19:09:47.185Z,8.65
2022-08-30T19:12:16.153Z,7.85
2022-08-30T19:14:44.539Z,8.50
2022-08-30T19:17:14.054Z,9.35
2022-08-30T19:19:48.392Z,7.53
2022-08-30T19:22:19.236Z,7.65
2022-08-30T19:24:47.905Z,8.82
2022-08-30T19:27:21.304Z,9.27
2022-08-30T19:29:53.196Z,11.02
2022-08-30T19:32:22.777Z,7.22
2022-08-30T19:34:52.895Z,9.27
2022-08-30T19:37:21.868Z,6.82
2022-08-30T19:39:50.572Z,10.82
2022-08-30T19:42:20.979Z,9.35
2022-08-30T19:44:51.178Z,6.82
2022-08-30T19:47:21.009Z,8.02
2022-08-30T19:49:49.350Z,6.78
2022-08-30T19:52:22.639Z,7.78
2022-08-30T19:54:51.023Z,6.90
2022-08-30T19:57:20.183Z,7.90
2022-08-30T19:59:48.717Z,8.38
2022-08-30T20:02:17.914Z,6.47
2022-08-30T20:04:47.124Z,6.80
2022-08-30T20:07:24.713Z,6.95
2022-08-30T20:09:56.506Z,7.90
2022-08-30T20:12:25.253Z,9.90
2022-08-30T20:14:53.976Z,6.82
2022-08-30T20:17:37.982Z,6.38
2022-08-30T20:20:20.464Z,6.43
2022-08-30T20:22:54.123Z,6.38
2022-08-30T20:24:24.933Z,6.68
2022-08-30T20:25:24.173Z,9.30
2022-08-30T20:27:52.895Z,6.95
2022-08-30T20:30:21.397Z,7.35
2022-08-30T20:32:52.508Z,6.68
2022-08-30T20:35:21.334Z,7.60
2022-08-30T20:37:51.162Z,8.55
2022-08-30T20:40:20.637Z,9.07
2022-08-30T20:42:51.019Z,9.35
2022-08-30T20:45:19.798Z,10.25
2022-08-30T20:47:48.179Z,8.40
2022-08-30T20:50:17.659Z,9.63
2022-08-30T20:52:47.614Z,10.05
2022-08-30T20:55:17.297Z,8.38
2022-08-30T20:57:47.665Z,8.00
2022-08-30T21:00:18.104Z,9.90
2022-08-30T21:02:48.385Z,8.48
2022-08-30T21:05:18.585Z,9.60
2022-08-30T21:07:48.181Z,7.95
2022-08-30T21:10:21.305Z,8.68
2022-08-30T21:12:52.410Z,12.30
2022-08-30T21:15:39.109Z,13.10
2022-08-30T21:18:08.519Z,9.93
2022-08-30T21:20:37.750Z,8.70
2022-08-30T21:23:06.135Z,8.75
2022-08-30T21:25:34.887Z,7.57
2022-08-30T21:28:03.635Z,7.43
2022-08-30T21:30:33.807Z,10.45
2022-08-30T21:33:02.895Z,10.45
2022-08-30T21:35:49.470Z,10.30
2022-08-30T21:38:19.058Z,10.98
2022-08-30T21:40:49.029Z,8.35
2022-08-30T21:43:17.566Z,8.82
2022-08-30T21:45:50.748Z,10.38
2022-08-30T21:48:19.407Z,9.80
2022-08-30T21:50:48.646Z,9.43
2022-08-30T21:53:17.595Z,9.57
2022-08-30T21:55:48.186Z,8.48
2022-08-30T21:58:17.653Z,10.82
2022-08-30T22:00:45.992Z,9.30
2022-08-30T22:03:16.920Z,10.75
2022-08-30T22:05:52.168Z,9.75
2022-08-30T22:08:21.311Z,9.82
2022-08-30T22:10:50.081Z,12.38
2022-08-30T22:13:18.568Z,10.98
2022-08-30T22:15:47.940Z,12.73
2022-08-30T22:18:18.127Z,10.52
2022-08-30T22:20:47.271Z,9.55
2022-08-30T22:23:19.057Z,12.45
2022-08-30T22:25:47.748Z,8.85
2022-08-30T22:28:16.536Z,8.60
2022-08-30T22:30:45.072Z,9.80
2022-08-30T22:33:14.575Z,12.10
2022-08-30T22:35:45.219Z,11.25
2022-08-30T22:38:15.311Z,13.73
2022-08-30T22:40:48.320Z,11.27
2022-08-30T22:43:18.187Z,10.48
2022-08-30T22:45:47.739Z,9.43
2022-08-30T22:48:16.378Z,9.90
2022-08-30T22:50:46.829Z,15.07
2022-08-30T22:53:15.207Z,12.38
2022-08-30T22:55:44.501Z,12.43
2022-08-30T22:58:12.901Z,9.00
2022-08-30T23:00:54.579Z,10.50
2022-08-30T23:03:24.217Z,8.82
2022-08-30T23:05:54.772Z,13.88
2022-08-30T23:08:23.184Z,11.85
2022-08-30T23:10:53.778Z,10.65
2022-08-30T23:13:22.747Z,10.43
2022-08-30T23:15:51.091Z,9.25
2022-08-30T23:18:20.271Z,12.57
2022-08-30T23:20:48.673Z,8.95
2022-08-30T23:23:36.610Z,11.07
2022-08-30T23:26:22.934Z,8.63
2022-08-30T23:29:08.656Z,11.02
2022-08-30T23:31:55.301Z,10.23
2022-08-30T23:34:41.106Z,9.02
2022-08-30T23:37:27.679Z,10.35
2022-08-30T23:40:14.688Z,9.52
2022-08-30T23:43:01.515Z,9.98
2022-08-30T23:45:47.338Z,11.45
2022-08-30T23:48:34.181Z,10.60
2022-08-30T23:51:21.895Z,12.27
2022-08-30T23:54:09.637Z,8.52
2022-08-30T23:56:57.607Z,9.65
2022-08-30T23:59:44.579Z,9.13
